Time;durP1;ratioP1;P1;durP2;ratioP2;P2;SDS_P1;SDS_P2;PMS_P1;PMS_P2;Temp;Humidity;BMP_temperature;BMP_pressure;BME280_temperature;BME280_humidity;BME280_pressure;Samples;Min_cycle;Max_cycle;Signal;HPM_P1;HPM_P2
2021/06/04 00:01:58;;;;;;;7.45;5.20;;;461.60;1920.00;;;;;;5084146;28;20506;-78
2021/06/04 00:04:24;;;;;;;9.57;5.45;;;461.50;1945.60;;;;;;5090006;28;20036;-78
2021/06/04 00:06:50;;;;;;;7.50;4.55;;;461.50;1920.00;;;;;;5088143;28;20082;-78
2021/06/04 00:09:15;;;;;;;6.55;4.55;;;461.50;1920.00;;;;;;5090159;28;20024;-78
2021/06/04 00:11:49;;;;;;;8.45;4.75;;;461.50;1945.60;;;;;;5087738;28;20399;-78
2021/06/04 00:14:19;;;;;;;5.93;4.72;;;461.40;1945.60;;;;;;5082686;28;20039;-77
2021/06/04 00:16:49;;;;;;;7.90;4.97;;;461.30;1945.60;;;;;;5082452;28;20099;-78
2021/06/04 00:19:20;;;;;;;7.63;5.18;;;461.30;1945.60;;;;;;5076153;28;20131;-79
2021/06/04 00:21:58;;;;;;;9.30;5.20;;;461.30;1945.60;;;;;;5095127;28;20032;-78
2021/06/04 00:24:24;;;;;;;6.68;4.82;;;461.30;1971.20;;;;;;5079270;28;20059;-79
2021/06/04 00:26:51;;;;;;;7.47;5.28;;;461.10;1945.60;;;;;;5084051;28;20035;-79
2021/06/04 00:29:18;;;;;;;7.15;4.85;;;461.20;1945.60;;;;;;5081679;28;20025;-78
2021/06/04 00:31:46;;;;;;;6.32;5.45;;;461.30;1945.60;;;;;;5077675;28;20031;-79
2021/06/04 00:34:14;;;;;;;7.57;5.13;;;461.30;1945.60;;;;;;5085153;28;20067;-78
2021/06/04 00:36:41;;;;;;;7.28;4.53;;;461.30;1945.60;;;;;;5079758;28;20055;-79
2021/06/04 00:39:08;;;;;;;7.70;4.75;;;461.30;1945.60;;;;;;5090282;28;20032;-79
2021/06/04 00:41:40;;;;;;;7.40;4.88;;;461.40;1945.60;;;;;;5090051;28;20099;-79
2021/06/04 00:44:07;;;;;;;7.10;4.25;;;461.40;1945.60;;;;;;5090502;28;20020;-79
2021/06/04 00:46:33;;;;;;;6.72;4.53;;;461.40;1945.60;;;;;;5089495;28;20032;-80
2021/06/04 00:49:00;;;;;;;5.97;4.47;;;461.30;1945.60;;;;;;5090040;28;20028;-79
2021/06/04 00:51:34;;;;;;;8.55;3.92;;;461.40;1945.60;;;;;;5089891;28;20103;-79
2021/06/04 00:54:02;;;;;;;5.55;4.28;;;461.40;1945.60;;;;;;5078542;28;20016;-79
2021/06/04 00:56:30;;;;;;;8.60;4.65;;;461.40;1945.60;;;;;;5082294;28;20036;-79
2021/06/04 00:58:56;;;;;;;7.38;3.97;;;461.40;1945.60;;;;;;5080977;28;20025;-79
2021/06/04 01:01:30;;;;;;;7.20;5.30;;;461.40;1945.60;;;;;;5083869;28;20024;-79
2021/06/04 01:04:13;;;;;;;8.27;4.82;;;461.40;1945.60;;;;;;5086432;28;20031;-79
2021/06/04 01:07:05;;;;;;;8.40;4.63;;;461.40;1945.60;;;;;;5089956;28;20048;-79
2021/06/04 01:09:45;;;;;;;6.35;4.10;;;461.40;1945.60;;;;;;5090734;28;20020;-79
2021/06/04 01:12:29;;;;;;;6.60;3.97;;;461.40;1920.00;;;;;;5090472;28;20012;-80
2021/06/04 01:15:25;;;;;;;9.07;4.18;;;461.40;1945.60;;;;;;5077616;28;20472;-80
2021/06/04 01:18:30;;;;;;;9.77;4.18;;;461.40;1945.60;;;;;;5076594;28;20032;-80
2021/06/04 01:21:10;;;;;;;5.97;4.18;;;461.30;1920.00;;;;;;5087222;28;20028;-81
2021/06/04 01:23:51;;;;;;;5.20;4.53;;;461.30;1945.60;;;;;;5089648;28;20024;-82
2021/06/04 01:26:29;;;;;;;7.18;4.63;;;461.30;1945.60;;;;;;5090560;28;20115;-80
2021/06/04 01:29:15;;;;;;;8.35;5.38;;;461.30;1945.60;;;;;;5079613;28;20169;-82
2021/06/04 01:31:55;;;;;;;8.27;5.32;;;461.30;1945.60;;;;;;5092774;28;20522;-81
2021/06/04 01:34:37;;;;;;;10.98;7.03;;;461.10;1971.20;;;;;;5082090;28;20488;-81
2021/06/04 01:37:14;;;;;;;10.70;6.55;;;461.10;1971.20;;;;;;5083720;28;20111;-80
2021/06/04 01:39:45;;;;;;;10.43;5.68;;;461.00;1971.20;;;;;;5084798;28;20474;-80
2021/06/04 01:42:14;;;;;;;17.40;6.43;;;461.10;1971.20;;;;;;5090365;28;20031;-80
2021/06/04 01:44:51;;;;;;;7.45;5.57;;;461.00;1971.20;;;;;;5084863;28;20101;-80
2021/06/04 01:48:04;;;;;;;9.40;6.60;;;460.90;1971.20;;;;;;5083059;28;20417;-80
2021/06/04 01:50:35;;;;;;;7.13;5.00;;;460.90;1996.80;;;;;;5042083;28;20489;-80
2021/06/04 01:53:12;;;;;;;8.73;5.90;;;460.90;1996.80;;;;;;5017950;28;20040;-80
2021/06/04 01:55:44;;;;;;;9.93;5.40;;;460.80;1996.80;;;;;;5012501;28;20071;-80
2021/06/04 01:58:14;;;;;;;9.75;6.25;;;460.80;2022.40;;;;;;5031596;28;20033;-80
2021/06/04 02:00:53;;;;;;;6.30;5.07;;;436.10;1996.80;;;;;;5029523;28;20033;-80
2021/06/04 02:03:21;;;;;;;11.65;5.78;;;436.10;1996.80;;;;;;5012071;28;20042;-79
2021/06/04 02:05:48;;;;;;;7.78;6.38;;;436.10;1996.80;;;;;;5029600;28;20037;-79
2021/06/04 02:08:28;;;;;;;7.72;5.13;;;436.00;1996.80;;;;;;5013493;28;20072;-79
2021/06/04 02:10:54;;;;;;;7.45;5.88;;;436.00;1996.80;;;;;;5013070;28;20040;-78
2021/06/04 02:13:20;;;;;;;8.30;6.25;;;435.90;1996.80;;;;;;5014960;28;20029;-78
2021/06/04 02:15:50;;;;;;;8.90;5.78;;;435.90;2022.40;;;;;;5043170;28;20524;-78
2021/06/04 02:18:24;;;;;;;7.82;5.47;;;435.90;2022.40;;;;;;5026506;28;20390;-79
2021/06/04 02:20:55;;;;;;;9.82;6.95;;;435.90;2022.40;;;;;;5058918;28;20040;-78
2021/06/04 02:23:36;;;;;;;8.85;5.93;;;435.80;2022.40;;;;;;5090792;28;20031;-78
2021/06/04 02:26:05;;;;;;;32.40;6.97;;;435.80;2022.40;;;;;;5103180;28;20479;-79
2021/06/04 02:28:41;;;;;;;10.25;6.47;;;435.80;2048.00;;;;;;5092425;28;20024;-79
2021/06/04 02:31:22;;;;;;;11.50;6.63;;;435.70;2048.00;;;;;;5086150;28;20489;-79
2021/06/04 02:34:01;;;;;;;12.50;5.70;;;435.70;2048.00;;;;;;5082075;28;20186;-78
2021/06/04 02:36:32;;;;;;;10.75;6.00;;;435.70;2048.00;;;;;;5088453;28;20088;-79
2021/06/04 02:39:07;;;;;;;9.48;5.65;;;435.70;2048.00;;;;;;5093375;28;20499;-79
2021/06/04 02:41:40;;;;;;;9.40;6.75;;;435.70;2048.00;;;;;;5086396;28;20029;-79
2021/06/04 02:44:15;;;;;;;7.75;6.28;;;435.70;2048.00;;;;;;5092852;28;20027;-78
2021/06/04 02:46:48;;;;;;;9.73;6.35;;;435.70;2048.00;;;;;;5092008;28;20107;-78
2021/06/04 02:49:15;;;;;;;8.43;5.95;;;435.70;2048.00;;;;;;5091715;28;20028;-78
2021/06/04 02:51:56;;;;;;;16.80;6.80;;;435.70;2048.00;;;;;;5085683;28;20515;-79
2021/06/04 02:54:29;;;;;;;10.90;6.55;;;435.70;2048.00;;;;;;5086719;28;20024;-79
2021/06/04 02:57:02;;;;;;;10.32;6.30;;;435.70;2048.00;;;;;;5085611;28;20533;-79
2021/06/04 02:59:39;;;;;;;9.77;6.20;;;435.70;2048.00;;;;;;5091239;28;20027;-79
2021/06/04 03:02:07;;;;;;;17.73;7.75;;;435.80;2022.40;;;;;;5086164;28;20024;-79
2021/06/04 03:04:35;;;;;;;9.93;6.93;;;435.70;2022.40;;;;;;5081394;28;20017;-79
2021/06/04 03:07:16;;;;;;;9.13;7.10;;;435.70;2048.00;;;;;;5080055;28;20055;-79
2021/06/04 03:09:44;;;;;;;10.63;7.50;;;435.70;2048.00;;;;;;5087576;28;20020;-80
2021/06/04 03:12:25;;;;;;;11.93;8.35;;;435.70;2048.00;;;;;;5091248;28;20072;-75
2021/06/04 03:14:54;;;;;;;11.65;7.65;;;435.70;2048.00;;;;;;5092096;28;20020;-75
2021/06/04 03:17:23;;;;;;;12.30;8.85;;;435.70;2048.00;;;;;;5091047;28;20036;-75
2021/06/04 03:19:49;;;;;;;14.05;9.13;;;435.70;2048.00;;;;;;5085674;28;20024;-75
2021/06/04 03:22:35;;;;;;;13.52;8.18;;;435.70;2048.00;;;;;;5084721;28;20139;-75
2021/06/04 03:25:12;;;;;;;12.55;9.38;;;435.70;2048.00;;;;;;5091836;28;20489;-75
2021/06/04 03:27:37;;;;;;;;;;;435.70;2048.00;;;;;;5084214;28;20031;-76
2021/06/04 03:30:06;;;;;;;15.63;10.23;;;435.70;2048.00;;;;;;5089606;28;19908;-75
2021/06/04 03:32:31;;;;;;;14.00;8.82;;;435.70;2048.00;;;;;;5084101;28;20081;-76
2021/06/04 03:34:57;;;;;;;12.75;8.82;;;435.70;2048.00;;;;;;5084350;28;20023;-77
2021/06/04 03:37:23;;;;;;;13.52;7.65;;;435.70;2048.00;;;;;;5091253;28;20553;-76
2021/06/04 03:39:49;;;;;;;11.88;7.68;;;435.70;2048.00;;;;;;5083632;28;20035;-77
2021/06/04 03:42:24;;;;;;;13.95;8.18;;;435.80;2022.40;;;;;;5092093;28;20106;-76
2021/06/04 03:44:51;;;;;;;11.70;7.03;;;435.90;2022.40;;;;;;5084590;28;20035;-76
2021/06/04 03:47:17;;;;;;;11.80;8.43;;;435.90;2022.40;;;;;;5076933;28;20021;-76
2021/06/04 03:49:43;;;;;;;12.80;8.45;;;435.90;2022.40;;;;;;5090763;28;20062;-76
2021/06/04 03:52:12;;;;;;;13.80;8.35;;;436.00;1996.80;;;;;;5086381;28;20024;-75
2021/06/04 03:54:44;;;;;;;13.00;9.63;;;436.00;1996.80;;;;;;5089050;28;20449;-76
2021/06/04 03:57:15;;;;;;;9.40;7.57;;;436.00;1996.80;;;;;;5083724;28;20089;-76
2021/06/04 03:59:43;;;;;;;12.27;7.63;;;436.10;1996.80;;;;;;5086445;28;20364;-75
2021/06/04 04:02:14;;;;;;;12.98;7.55;;;460.80;2022.40;;;;;;5083398;28;20024;-75
2021/06/04 04:04:40;;;;;;;9.68;6.93;;;460.80;1996.80;;;;;;5084148;28;20021;-75
2021/06/04 04:07:07;;;;;;;13.50;7.15;;;460.90;1996.80;;;;;;5083213;28;20040;-75
2021/06/04 04:09:33;;;;;;;10.25;7.57;;;460.90;1996.80;;;;;;5085206;28;20024;-75
2021/06/04 04:11:59;;;;;;;11.32;6.95;;;461.00;1996.80;;;;;;5089291;28;20032;-75
2021/06/04 04:14:26;;;;;;;11.05;6.70;;;461.00;1971.20;;;;;;5080692;28;20024;-75
2021/06/04 04:16:52;;;;;;;11.05;7.38;;;461.00;1996.80;;;;;;5078688;28;20024;-76
2021/06/04 04:19:19;;;;;;;12.75;6.85;;;461.10;1996.80;;;;;;5078793;28;20033;-76
2021/06/04 04:21:48;;;;;;;7.72;5.70;;;461.20;1996.80;;;;;;5086173;28;20093;-76
2021/06/04 04:24:18;;;;;;;10.15;6.72;;;461.30;1996.80;;;;;;5090411;28;20130;-76
2021/06/04 04:26:45;;;;;;;10.60;6.32;;;461.30;1971.20;;;;;;5090605;28;20024;-76
2021/06/04 04:29:11;;;;;;;12.15;6.30;;;461.30;1971.20;;;;;;5090739;28;20020;-76
2021/06/04 04:31:42;;;;;;;10.98;5.97;;;461.40;1971.20;;;;;;5085159;28;20400;-76
2021/06/04 04:34:08;;;;;;;11.82;6.45;;;461.40;1945.60;;;;;;5085621;28;20384;-76
2021/06/04 04:36:38;;;;;;;7.15;5.72;;;461.50;1945.60;;;;;;5084858;28;20024;-75
2021/06/04 04:39:08;;;;;;;9.52;5.90;;;461.50;1945.60;;;;;;5082025;28;20032;-75
2021/06/04 04:41:34;;;;;;;8.68;6.07;;;461.50;1945.60;;;;;;5088046;28;20024;-75
2021/06/04 04:44:01;;;;;;;8.05;5.78;;;461.60;1971.20;;;;;;5091587;28;20024;-75
2021/06/04 04:46:29;;;;;;;9.43;5.53;;;461.60;1945.60;;;;;;5089250;28;20025;-75
2021/06/04 04:48:55;;;;;;;9.68;5.75;;;461.70;1945.60;;;;;;5085463;28;20501;-76
2021/06/04 04:51:22;;;;;;;14.02;6.28;;;486.40;1945.60;;;;;;5089942;28;20091;-75
2021/06/04 04:53:49;;;;;;;12.98;5.88;;;486.40;1945.60;;;;;;5088164;28;20056;-75
2021/06/04 04:56:15;;;;;;;9.23;4.88;;;486.40;1945.60;;;;;;5091391;28;20017;-75
2021/06/04 04:58:41;;;;;;;7.38;4.93;;;486.60;1945.60;;;;;;5089467;28;20039;-76
2021/06/04 05:01:09;;;;;;;8.57;5.10;;;486.70;1945.60;;;;;;5076090;28;20465;-77
2021/06/04 05:03:36;;;;;;;6.82;4.93;;;486.90;1920.00;;;;;;5086217;28;20020;-76
2021/06/04 05:06:03;;;;;;;9.27;5.45;;;487.20;1894.40;;;;;;5087649;28;20044;-77
2021/06/04 05:08:28;;;;;;;12.60;7.57;;;487.20;1894.40;;;;;;5088371;28;20388;-77
2021/06/04 05:10:56;;;;;;;11.23;5.20;;;487.30;1894.40;;;;;;5092509;28;20020;-77
2021/06/04 05:13:22;;;;;;;9.25;4.88;;;512.10;1868.80;;;;;;5087794;28;20106;-77
2021/06/04 05:15:47;;;;;;;7.28;4.82;;;512.20;1843.20;;;;;;5079897;28;20052;-77
2021/06/04 05:18:14;;;;;;;9.35;5.07;;;512.40;1817.60;;;;;;5095064;28;20385;-76
2021/06/04 05:20:42;;;;;;;11.30;4.75;;;512.40;1817.60;;;;;;5092149;28;20031;-77
2021/06/04 05:23:08;;;;;;;7.35;4.95;;;512.40;1817.60;;;;;;5092309;28;20107;-77
2021/06/04 05:25:37;;;;;;;8.85;5.57;;;512.50;1817.60;;;;;;5093031;28;20074;-76
2021/06/04 05:28:04;;;;;;;12.27;4.82;;;512.60;1792.00;;;;;;5092948;28;20033;-76
2021/06/04 05:30:39;;;;;;;9.20;5.95;;;512.70;1792.00;;;;;;5089336;28;20035;-76
2021/06/04 05:33:06;;;;;;;8.65;5.30;;;512.70;1817.60;;;;;;5093048;28;20043;-76
2021/06/04 05:35:32;;;;;;;11.80;6.03;;;512.80;1817.60;;;;;;5085628;28;20043;-76
2021/06/04 05:37:58;;;;;;;7.30;4.53;;;537.90;1817.60;;;;;;5085307;28;20479;-76
2021/06/04 05:40:30;;;;;;;9.25;5.22;;;538.20;1766.40;;;;;;5090193;28;20500;-76
2021/06/04 05:42:57;;;;;;;10.90;5.32;;;538.50;1740.80;;;;;;5085269;28;20044;-75
2021/06/04 05:45:26;;;;;;;9.10;4.57;;;563.20;1740.80;;;;;;5093817;28;20026;-75
2021/06/04 05:47:53;;;;;;;10.88;4.28;;;563.30;1766.40;;;;;;5094701;28;20016;-77
2021/06/04 05:50:24;;;;;;;5.22;4.18;;;563.40;1740.80;;;;;;5089515;28;20139;-76
2021/06/04 05:52:50;;;;;;;8.65;4.50;;;563.50;1740.80;;;;;;5083512;28;20036;-75
2021/06/04 05:55:20;;;;;;;7.47;4.43;;;563.60;1740.80;;;;;;5086890;28;20418;-76
2021/06/04 05:57:46;;;;;;;8.40;4.65;;;563.80;1715.20;;;;;;5086122;28;20036;-75
2021/06/04 06:00:29;;;;;;;7.57;4.78;;;563.90;1715.20;;;;;;5088767;28;20028;-75
2021/06/04 06:02:56;;;;;;;6.50;3.63;;;563.90;1715.20;;;;;;5084935;28;20592;-75
2021/06/04 06:05:22;;;;;;;9.00;4.68;;;563.90;1664.00;;;;;;5089239;28;20101;-76
2021/06/04 06:07:48;;;;;;;8.35;3.88;;;563.90;1664.00;;;;;;5091846;28;20076;-76
2021/06/04 06:10:14;;;;;;;6.95;3.70;;;563.90;1664.00;;;;;;5085035;28;20058;-76
2021/06/04 06:12:40;;;;;;;7.35;3.72;;;563.80;1638.40;;;;;;5091325;28;20028;-76
2021/06/04 06:15:08;;;;;;;7.03;3.75;;;564.00;1664.00;;;;;;5090081;28;20106;-77
2021/06/04 06:17:35;;;;;;;10.88;4.00;;;564.00;1664.00;;;;;;5085651;28;20020;-75
2021/06/04 06:20:01;;;;;;;7.30;3.40;;;588.80;1664.00;;;;;;5085450;28;20028;-76
2021/06/04 06:22:26;;;;;;;11.60;4.30;;;589.00;1638.40;;;;;;5091140;28;20388;-77
2021/06/04 06:24:52;;;;;;;8.25;5.07;;;589.10;1612.80;;;;;;5087809;28;20052;-76
2021/06/04 06:27:18;;;;;;;10.65;5.53;;;589.30;1612.80;;;;;;5089076;28;20024;-75
2021/06/04 06:29:45;;;;;;;12.43;6.63;;;589.60;1587.20;;;;;;5084333;28;20912;-76
2021/06/04 06:32:12;;;;;;;10.95;5.68;;;589.60;1587.20;;;;;;5086324;28;20020;-76
2021/06/04 06:34:39;;;;;;;9.98;3.78;;;614.40;1587.20;;;;;;5084752;28;20056;-76
2021/06/04 06:37:05;;;;;;;5.30;3.38;;;614.50;1484.80;;;;;;5086808;28;20028;-76
2021/06/04 06:39:33;;;;;;;7.05;4.28;;;614.90;1510.40;;;;;;5083564;28;20485;-76
2021/06/04 06:42:03;;;;;;;8.48;4.72;;;615.00;1536.00;;;;;;5086832;28;20063;-76
2021/06/04 06:44:28;;;;;;;8.32;4.60;;;615.20;1536.00;;;;;;5083998;28;20024;-76
2021/06/04 06:46:55;;;;;;;9.55;4.38;;;615.30;1536.00;;;;;;5083730;28;20027;-75
2021/06/04 06:49:23;;;;;;;6.05;3.65;;;640.00;1484.80;;;;;;5085200;28;20063;-76
2021/06/04 06:51:49;;;;;;;5.93;3.47;;;640.10;1459.20;;;;;;5082596;28;20036;-76
2021/06/04 06:54:19;;;;;;;6.85;3.40;;;640.30;1433.60;;;;;;5084907;28;20054;-76
2021/06/04 06:56:51;;;;;;;10.15;4.10;;;640.80;1382.40;;;;;;5086224;28;20036;-76
2021/06/04 06:59:17;;;;;;;5.40;3.38;;;640.80;1408.00;;;;;;5084305;28;20123;-76
2021/06/04 07:01:43;;;;;;;5.63;3.63;;;665.60;1459.20;;;;;;5084596;28;20063;-75
2021/06/04 07:04:09;;;;;;;4.70;3.50;;;640.80;1408.00;;;;;;5085630;28;20366;-75
2021/06/04 07:06:37;;;;;;;5.25;3.30;;;640.70;1408.00;;;;;;5083561;28;21067;-76
2021/06/04 07:09:06;;;;;;;12.60;4.53;;;640.60;1408.00;;;;;;5083408;28;20048;-76
2021/06/04 07:11:35;;;;;;;9.75;3.70;;;640.50;1433.60;;;;;;5084178;28;20070;-76
2021/06/04 07:14:01;;;;;;;6.78;3.30;;;640.40;1408.00;;;;;;5084193;28;20027;-76
2021/06/04 07:16:27;;;;;;;5.70;3.47;;;640.40;1433.60;;;;;;5079617;28;20408;-77
2021/06/04 07:18:53;;;;;;;6.88;3.28;;;640.60;1433.60;;;;;;5086334;28;20101;-77
2021/06/04 07:21:22;;;;;;;7.43;4.38;;;640.80;1408.00;;;;;;5086968;28;20488;-77
2021/06/04 07:23:48;;;;;;;5.18;3.45;;;665.70;1433.60;;;;;;5083216;28;20073;-78
2021/06/04 07:26:15;;;;;;;5.35;3.50;;;640.80;1433.60;;;;;;5083162;28;20025;-77
2021/06/04 07:28:40;;;;;;;11.85;3.83;;;665.80;1433.60;;;;;;5081212;28;20024;-77
2021/06/04 07:31:11;;;;;;;7.65;3.20;;;666.20;1408.00;;;;;;5081607;28;20025;-76
2021/06/04 07:33:48;;;;;;;5.57;4.07;;;666.50;1356.80;;;;;;5078638;28;20032;-78
2021/06/04 07:36:40;;;;;;;9.02;3.55;;;691.20;1356.80;;;;;;5080842;28;20093;-77
2021/06/04 07:39:08;;;;;;;6.57;3.83;;;691.20;1382.40;;;;;;5088676;28;20028;-77
2021/06/04 07:41:35;;;;;;;5.85;3.22;;;691.70;1356.80;;;;;;5088562;28;20043;-77
2021/06/04 07:44:03;;;;;;;5.57;4.03;;;692.00;1305.60;;;;;;5084206;28;20105;-77
2021/06/04 07:46:29;;;;;;;5.28;3.70;;;716.90;1331.20;;;;;;5089015;28;20099;-77
2021/06/04 07:48:55;;;;;;;6.63;4.03;;;717.20;1305.60;;;;;;5088734;28;20107;-77
2021/06/04 07:51:49;;;;;;;10.52;4.20;;;717.50;1280.00;;;;;;5085904;28;20432;-78
2021/06/04 07:54:18;;;;;;;8.45;3.63;;;742.40;1280.00;;;;;;5077745;28;20400;-78
2021/06/04 07:56:44;;;;;;;6.88;2.97;;;742.40;1280.00;;;;;;5085416;28;20032;-77
2021/06/04 07:59:10;;;;;;;6.43;3.38;;;717.70;1254.40;;;;;;5084564;28;20024;-77
2021/06/04 08:01:39;;;;;;;6.88;3.10;;;717.70;1254.40;;;;;;5084334;28;20032;-78
2021/06/04 08:04:05;;;;;;;5.07;3.10;;;742.60;1254.40;;;;;;5086752;28;20370;-77
2021/06/04 08:06:31;;;;;;;4.20;2.50;;;742.70;1228.80;;;;;;5085574;28;20098;-77
2021/06/04 08:08:56;;;;;;;3.97;2.85;;;743.10;1177.60;;;;;;5089823;28;20028;-78
2021/06/04 08:11:33;;;;;;;5.15;3.08;;;743.10;1177.60;;;;;;5088749;28;20028;-78
2021/06/04 08:14:01;;;;;;;3.50;2.75;;;743.10;1203.20;;;;;;5082123;28;20024;-78
2021/06/04 08:16:28;;;;;;;4.82;3.13;;;743.00;1126.40;;;;;;5088244;28;20492;-77
2021/06/04 08:18:54;;;;;;;4.80;2.90;;;743.00;1152.00;;;;;;5089748;28;20028;-77
2021/06/04 08:21:30;;;;;;;5.32;3.28;;;743.20;1152.00;;;;;;5089415;28;20020;-78
2021/06/04 08:23:56;;;;;;;3.70;2.40;;;768.40;1100.80;;;;;;5090134;28;20063;-77
2021/06/04 08:26:26;;;;;;;3.97;3.00;;;768.20;1100.80;;;;;;5090824;28;20051;-78
2021/06/04 08:28:53;;;;;;;3.65;2.75;;;768.30;1075.20;;;;;;5089833;28;20065;-77
2021/06/04 08:31:20;;;;;;;5.97;2.78;;;768.60;1049.60;;;;;;5091070;28;20111;-77
2021/06/04 08:33:46;;;;;;;7.78;3.72;;;794.00;1049.60;;;;;;5091463;28;20024;-77
2021/06/04 08:36:17;;;;;;;6.85;4.00;;;794.00;972.80;;;;;;5088428;28;20078;-79
2021/06/04 08:38:43;;;;;;;6.97;2.55;;;793.70;998.40;;;;;;5093242;28;20062;-80
2021/06/04 08:41:33;;;;;;;4.20;2.50;;;794.10;998.40;;;;;;5090501;28;20442;-79
2021/06/04 08:44:27;;;;;;;6.80;3.35;;;794.10;998.40;;;;;;5091110;28;20056;-79
2021/06/04 08:47:20;;;;;;;5.78;3.05;;;794.20;998.40;;;;;;5093596;28;20023;-79
2021/06/04 08:49:57;;;;;;;10.57;4.47;;;819.30;972.80;;;;;;5036990;28;20121;-78
2021/06/04 08:53:02;;;;;;;5.18;2.90;;;819.20;947.20;;;;;;5025771;28;20029;-79
2021/06/04 08:55:41;;;;;;;7.55;3.67;;;819.70;947.20;;;;;;5014322;28;20034;-79
2021/06/04 08:58:18;;;;;;;5.20;3.83;;;819.50;972.80;;;;;;5032797;28;20053;-79
2021/06/04 09:00:55;;;;;;;3.83;2.80;;;819.40;947.20;;;;;;5034056;28;20168;-79
2021/06/04 09:03:38;;;;;;;7.20;2.90;;;794.20;947.20;;;;;;5011449;28;20543;-79
2021/06/04 09:06:27;;;;;;;9.50;2.88;;;794.30;921.60;;;;;;5032419;28;20072;-79
2021/06/04 09:08:54;;;;;;;4.82;2.55;;;819.30;921.60;;;;;;5007623;28;20093;-79
2021/06/04 09:11:31;;;;;;;6.90;2.80;;;768.70;921.60;;;;;;5022744;28;20029;-79
2021/06/04 09:13:57;;;;;;;4.97;2.85;;;768.10;921.60;;;;;;5029600;28;20037;-78
2021/06/04 09:16:29;;;;;;;9.70;3.25;;;743.10;972.80;;;;;;5010997;28;20029;-79
2021/06/04 09:19:02;;;;;;;5.63;2.53;;;742.50;998.40;;;;;;5032608;28;20037;-78
2021/06/04 09:21:33;;;;;;;4.07;2.92;;;743.10;998.40;;;;;;5013180;28;20440;-79
2021/06/04 09:24:02;;;;;;;4.88;2.72;;;743.10;972.80;;;;;;5008713;28;20026;-79
2021/06/04 09:26:29;;;;;;;4.97;2.75;;;743.00;947.20;;;;;;5039704;28;20029;-80
2021/06/04 09:29:01;;;;;;;6.63;2.83;;;742.70;947.20;;;;;;5079826;28;20024;-79
2021/06/04 09:31:37;;;;;;;5.88;3.58;;;743.10;947.20;;;;;;5088871;28;20021;-80
2021/06/04 09:34:24;;;;;;;4.25;3.00;;;768.30;947.20;;;;;;5087395;28;20061;-82
2021/06/04 09:36:58;;;;;;;5.53;2.75;;;794.00;921.60;;;;;;5092133;28;20040;-79
2021/06/04 09:39:27;;;;;;;4.25;3.17;;;794.50;819.20;;;;;;5087973;28;20033;-80
2021/06/04 09:42:23;;;;;;;6.32;2.92;;;819.30;844.80;;;;;;5087144;28;20024;-80
2021/06/04 09:45:23;;;;;;;7.35;4.10;;;819.40;844.80;;;;;;5084675;28;20070;-80
2021/06/04 09:48:08;;;;;;;11.95;3.13;;;819.80;819.20;;;;;;5088456;28;20020;-80
2021/06/04 09:50:43;;;;;;;4.35;2.92;;;820.10;819.20;;;;;;5089080;28;20485;-80
2021/06/04 09:53:20;;;;;;;8.65;3.45;;;845.00;844.80;;;;;;5079715;28;20033;-81
2021/06/04 09:55:52;;;;;;;3.78;2.72;;;845.40;819.20;;;;;;5086620;28;20326;-80
2021/06/04 09:58:28;;;;;;;4.85;2.92;;;870.60;793.60;;;;;;5086967;28;20027;-80
2021/06/04 10:01:00;;;;;;;6.93;2.88;;;871.10;742.40;;;;;;5084389;28;20028;-79
2021/06/04 10:03:40;;;;;;;3.47;2.63;;;896.00;742.40;;;;;;5080390;28;20017;-81
2021/06/04 10:06:06;;;;;;;7.30;3.30;;;896.50;716.80;;;;;;5082573;28;20119;-80
2021/06/04 10:08:43;;;;;;;5.22;3.83;;;896.10;742.40;;;;;;5085767;28;20016;-80
2021/06/04 10:11:15;;;;;;;5.72;3.33;;;896.50;742.40;;;;;;5089016;28;20031;-80
2021/06/04 10:13:48;;;;;;;5.88;3.95;;;896.30;742.40;;;;;;5082941;28;20020;-80
2021/06/04 10:19:40;;;;;;;3.40;2.90;;;820.10;819.20;;;;;;5085010;28;20035;-80
2021/06/04 10:22:17;;;;;;;7.30;3.80;;;819.20;844.80;;;;;;5083867;28;20021;-79
2021/06/04 10:24:51;;;;;;;6.80;3.33;;;793.80;844.80;;;;;;5080745;28;20039;-79
2021/06/04 10:27:33;;;;;;;8.38;6.43;;;794.10;819.20;;;;;;5085125;28;20081;-79
2021/06/04 10:30:10;;;;;;;7.75;3.95;;;819.70;819.20;;;;;;5083160;28;20024;-80
2021/06/04 10:32:53;;;;;;;7.70;3.03;;;845.50;793.60;;;;;;5081116;28;20060;-80
2021/06/04 10:35:45;;;;;;;5.00;2.38;;;896.00;742.40;;;;;;5085922;28;20075;-80
2021/06/04 10:38:35;;;;;;;5.97;3.65;;;896.90;716.80;;;;;;5098568;28;20416;-80
2021/06/04 10:41:06;;;;;;;4.95;4.25;;;922.00;742.40;;;;;;5081449;28;20036;-80
2021/06/04 10:43:50;;;;;;;12.98;7.25;;;922.10;742.40;;;;;;5086969;28;20016;-80
2021/06/04 10:46:41;;;;;;;5.95;2.75;;;921.90;742.40;;;;;;5085776;28;20062;-78
2021/06/04 10:49:52;;;;;;;5.72;3.38;;;922.00;742.40;;;;;;5088409;28;20024;-78
2021/06/04 10:52:43;;;;;;;7.10;4.65;;;921.90;742.40;;;;;;5084388;28;20039;-80
2021/06/04 10:55:29;;;;;;;3.85;3.35;;;871.10;768.00;;;;;;5082561;28;20024;-80
2021/06/04 10:58:17;;;;;;;6.07;4.03;;;870.70;793.60;;;;;;5087450;28;20035;-79
2021/06/04 11:00:56;;;;;;;4.85;3.35;;;845.40;819.20;;;;;;5085764;28;20021;-79
2021/06/04 11:03:33;;;;;;;4.75;3.00;;;870.60;793.60;;;;;;5086282;28;20115;-79
2021/06/04 11:06:30;;;;;;;7.38;4.68;;;871.10;768.00;;;;;;5075473;28;20036;-78
2021/06/04 11:09:14;;;;;;;6.68;3.10;;;896.40;742.40;;;;;;4999552;28;20486;-79
2021/06/04 11:11:47;;;;;;;5.45;4.00;;;871.30;768.00;;;;;;5011474;28;20102;-79
2021/06/04 11:14:58;;;;;;;5.10;2.90;;;871.10;768.00;;;;;;5016352;28;20034;-79
2021/06/04 11:17:50;;;;;;;4.70;2.97;;;896.40;716.80;;;;;;4982021;28;20553;-79
2021/06/04 11:20:32;;;;;;;5.55;3.38;;;896.40;742.40;;;;;;4970582;28;20038;-79
2021/06/04 11:23:10;;;;;;;5.68;2.75;;;922.00;716.80;;;;;;4953138;28;20030;-80
2021/06/04 11:25:51;;;;;;;3.72;2.42;;;947.50;691.20;;;;;;4963232;28;20481;-80
2021/06/04 11:28:34;;;;;;;4.15;3.38;;;947.90;665.60;;;;;;4973021;28;20039;-79
2021/06/04 11:31:01;;;;;;;6.25;2.92;;;947.90;665.60;;;;;;4964848;28;20038;-76
2021/06/04 11:33:34;;;;;;;5.85;3.08;;;973.00;716.80;;;;;;4965295;28;20124;-79
2021/06/04 11:36:34;;;;;;;4.15;2.88;;;973.50;665.60;;;;;;4962307;28;20626;-79
2021/06/04 11:39:08;;;;;;;5.72;3.08;;;998.60;665.60;;;;;;4950683;28;20070;-79
2021/06/04 11:41:40;;;;;;;5.23;3.10;;;947.60;691.20;;;;;;4975002;28;20137;-79
2021/06/04 11:44:19;;;;;;;5.75;3.80;;;896.30;716.80;;;;;;4980222;28;20363;-80
2021/06/04 11:47:17;;;;;;;5.25;3.67;;;870.40;742.40;;;;;;5013554;28;20044;-80
2021/06/04 11:50:06;;;;;;;4.10;2.60;;;845.00;768.00;;;;;;5021475;28;20022;-80
2021/06/04 11:52:31;;;;;;;9.23;3.92;;;819.40;793.60;;;;;;5076607;28;20439;-80
2021/06/04 11:55:29;;;;;;;4.60;3.00;;;819.90;768.00;;;;;;5081157;28;20790;-81
2021/06/04 11:58:29;;;;;;;8.02;3.20;;;870.80;742.40;;;;;;5089154;28;20110;-80
2021/06/04 12:01:15;;;;;;;5.07;3.33;;;896.80;691.20;;;;;;5080072;28;20028;-80
2021/06/04 12:04:10;;;;;;;4.47;2.65;;;947.30;691.20;;;;;;5079959;28;20146;-81
2021/06/04 12:06:46;;;;;;;4.90;3.10;;;921.90;716.80;;;;;;5081374;28;20051;-81
2021/06/04 12:09:30;;;;;;;4.18;2.58;;;870.90;742.40;;;;;;5086511;28;20040;-81
2021/06/04 12:12:20;;;;;;;3.80;2.80;;;845.60;768.00;;;;;;5079265;28;20056;-80
2021/06/04 12:14:55;;;;;;;7.40;3.20;;;820.00;793.60;;;;;;5085660;28;20024;-81
2021/06/04 12:17:25;;;;;;;5.45;3.15;;;845.10;793.60;;;;;;5074962;28;20492;-81
2021/06/04 12:20:22;;;;;;;5.97;3.75;;;870.40;768.00;;;;;;5083939;28;20131;-82
2021/06/04 12:23:04;;;;;;;5.50;4.60;;;870.50;742.40;;;;;;5083050;28;20673;-81
2021/06/04 12:25:48;;;;;;;6.55;4.05;;;871.30;716.80;;;;;;5083471;28;20174;-81
2021/06/04 12:28:23;;;;;;;4.93;3.65;;;896.60;716.80;;;;;;5080642;28;20020;-80
2021/06/04 12:30:53;;;;;;;7.70;5.60;;;922.40;716.80;;;;;;5084310;28;20020;-80
2021/06/04 12:33:41;;;;;;;8.77;3.05;;;948.00;665.60;;;;;;5078661;28;20029;-80
2021/06/04 12:36:41;;;;;;;8.10;3.17;;;972.80;691.20;;;;;;5086564;28;20811;-80
2021/06/04 12:39:22;;;;;;;9.80;4.43;;;921.90;716.80;;;;;;5091068;28;20039;-80
2021/06/04 12:42:06;;;;;;;6.28;3.40;;;947.70;665.60;;;;;;5086934;28;20856;-80
2021/06/04 12:44:32;;;;;;;5.80;4.03;;;947.90;665.60;;;;;;5084777;28;20035;-80
2021/06/04 12:46:58;;;;;;;5.40;3.13;;;973.70;665.60;;;;;;5097916;28;20024;-80
2021/06/04 12:49:25;;;;;;;6.63;4.20;;;998.90;665.60;;;;;;5091046;28;20047;-81
2021/06/04 12:51:52;;;;;;;6.78;4.28;;;947.90;665.60;;;;;;5084424;28;20036;-80
2021/06/04 12:54:24;;;;;;;9.63;4.50;;;922.10;716.80;;;;;;5089884;28;20020;-81